createdAt,value
2023-04-28T00:01:28.271Z,97720.40
2023-04-28T00:03:55.727Z,97719.60
2023-04-28T00:06:22.539Z,97718.00
2023-04-28T00:08:49.258Z,97710.20
2023-04-28T00:11:16.338Z,97712.60
2023-04-28T00:13:42.889Z,97712.00
2023-04-28T00:16:09.523Z,97710.20
2023-04-28T00:18:36.193Z,97713.00
2023-04-28T00:21:02.992Z,97708.40
2023-04-28T00:23:29.656Z,97708.00
2023-04-28T00:25:57.596Z,97703.80
2023-04-28T00:28:33.516Z,97700.20
2023-04-28T00:31:01.182Z,97700.80
2023-04-28T00:33:27.786Z,97701.60
2023-04-28T00:36:01.491Z,97700.00
2023-04-28T00:38:28.748Z,97698.40
2023-04-28T00:40:55.680Z,97697.60
2023-04-28T00:43:22.283Z,97688.20
2023-04-28T00:45:52.931Z,97690.80
2023-04-28T00:48:19.944Z,97694.40
2023-04-28T00:50:48.500Z,97693.40
2023-04-28T00:53:15.401Z,97694.40
2023-04-28T00:55:42.306Z,97694.00
2023-04-28T00:58:10.046Z,97697.20
2023-04-28T01:00:36.881Z,97690.80
2023-04-28T01:03:03.892Z,97692.00
2023-04-28T01:05:35.022Z,97687.40
2023-04-28T01:08:01.673Z,97695.20
2023-04-28T01:10:28.396Z,97686.60
2023-04-28T01:12:55.461Z,97687.60
2023-04-28T01:15:22.360Z,97686.80
2023-04-28T01:17:51.486Z,97687.00
2023-04-28T01:20:18.386Z,97689.20
2023-04-28T01:22:45.285Z,97688.40
2023-04-28T01:25:12.055Z,97688.40
2023-04-28T01:27:38.709Z,97684.00
2023-04-28T01:30:07.020Z,97685.80
2023-04-28T01:32:33.782Z,97688.60
2023-04-28T01:35:01.494Z,97686.00
2023-04-28T01:37:28.158Z,97688.80
2023-04-28T01:39:54.773Z,97687.60
2023-04-28T01:42:21.423Z,97686.00
2023-04-28T01:44:48.050Z,97689.40
2023-04-28T01:47:14.712Z,97687.80
2023-04-28T01:49:41.289Z,97685.20
2023-04-28T01:52:07.956Z,97685.60
2023-04-28T01:54:35.360Z,97682.60
2023-04-28T01:57:03.233Z,97684.80
2023-04-28T01:59:30.718Z,97682.20
2023-04-28T02:01:57.640Z,97675.40
2023-04-28T02:04:24.550Z,97670.60
2023-04-28T02:06:51.703Z,97672.20
2023-04-28T02:09:18.384Z,97672.40
2023-04-28T02:11:45.310Z,97666.00
2023-04-28T02:14:12.006Z,97655.80
2023-04-28T02:16:38.639Z,97652.20
2023-04-28T02:19:05.239Z,97650.40
2023-04-28T02:21:32.042Z,97654.40
2023-04-28T02:23:58.849Z,97656.60
2023-04-28T02:26:25.933Z,97654.40
2023-04-28T02:28:52.678Z,97654.20
2023-04-28T02:31:19.369Z,97655.60
2023-04-28T02:33:46.345Z,97654.40
2023-04-28T02:36:13.301Z,97653.20
2023-04-28T02:38:41.734Z,97653.00
2023-04-28T02:41:09.419Z,97650.40
2023-04-28T02:43:37.540Z,97653.60
2023-04-28T02:46:05.698Z,97653.20
2023-04-28T02:48:35.360Z,97650.80
2023-04-28T02:51:03.031Z,97645.80
2023-04-28T02:53:29.902Z,97650.00
2023-04-28T02:55:57.082Z,97657.60
2023-04-28T02:58:23.756Z,97660.40
2023-04-28T03:00:50.647Z,97651.60
2023-04-28T03:03:17.633Z,97648.40
2023-04-28T03:05:44.407Z,97656.00
2023-04-28T03:08:10.968Z,97650.40
2023-04-28T03:10:37.583Z,97653.60
2023-04-28T03:13:04.379Z,97653.80
2023-04-28T03:15:31.202Z,97652.20
2023-04-28T03:17:57.899Z,97646.40
2023-04-28T03:20:24.687Z,97639.60
2023-04-28T03:22:51.234Z,97646.00
2023-04-28T03:25:18.426Z,97646.00
2023-04-28T03:27:48.000Z,97650.60
2023-04-28T03:30:14.898Z,97651.20
2023-04-28T03:32:41.757Z,97650.20
2023-04-28T03:35:09.476Z,97642.00
2023-04-28T03:37:36.264Z,97641.20
2023-04-28T03:40:03.501Z,97628.40
2023-04-28T03:42:36.122Z,97626.00
2023-04-28T03:45:03.451Z,97625.60
2023-04-28T03:47:30.434Z,97620.20
2023-04-28T03:49:58.872Z,97618.80
2023-04-28T03:52:26.290Z,97620.40
2023-04-28T03:54:53.044Z,97624.40
2023-04-28T03:57:19.684Z,97620.20
2023-04-28T03:59:46.480Z,97628.20
2023-04-28T04:02:13.152Z,97626.80
2023-04-28T04:04:39.902Z,97623.00
2023-04-28T04:07:06.783Z,97618.20
2023-04-28T04:09:33.887Z,97608.40
2023-04-28T04:12:01.356Z,97610.40
2023-04-28T04:14:28.181Z,97603.40
2023-04-28T04:16:55.602Z,97605.40
2023-04-28T04:19:24.138Z,97602.00
2023-04-28T04:21:53.614Z,97596.00
2023-04-28T04:24:20.488Z,97594.20
2023-04-28T04:26:47.594Z,97589.80
2023-04-28T04:29:28.371Z,97591.00
2023-04-28T04:31:55.107Z,97592.40
2023-04-28T04:34:21.873Z,97580.80
2023-04-28T04:36:49.003Z,97572.40
2023-04-28T04:39:16.123Z,97560.60
2023-04-28T04:41:44.304Z,97565.60
2023-04-28T04:44:28.306Z,97558.60
2023-04-28T04:46:56.226Z,97563.20
2023-04-28T04:49:22.943Z,97562.80
2023-04-28T04:51:50.101Z,97551.80
2023-04-28T04:54:17.483Z,97555.00
2023-04-28T04:56:44.646Z,97566.40
2023-04-28T04:59:11.909Z,97572.40
2023-04-28T05:01:44.891Z,97578.20
2023-04-28T05:04:12.514Z,97585.60
2023-04-28T05:06:40.715Z,97582.00
2023-04-28T05:09:07.478Z,97582.20
2023-04-28T05:11:34.329Z,97570.80
2023-04-28T05:14:01.142Z,97566.40
2023-04-28T05:16:28.569Z,97567.20
2023-04-28T05:19:11.028Z,97573.00
2023-04-28T05:21:37.633Z,97568.40
2023-04-28T05:24:05.255Z,97576.20
2023-04-28T05:26:31.974Z,97586.80
2023-04-28T05:29:03.305Z,97586.80
2023-04-28T05:31:29.926Z,97585.40
2023-04-28T05:33:57.094Z,97576.00
2023-04-28T05:36:23.726Z,97576.80
2023-04-28T05:38:50.759Z,97580.20
2023-04-28T05:41:18.054Z,97577.80
2023-04-28T05:43:44.702Z,97584.00
2023-04-28T05:46:28.490Z,97582.20
2023-04-28T05:48:57.677Z,97587.40
2023-04-28T05:51:24.639Z,97593.60
2023-04-28T05:53:51.447Z,97599.00
2023-04-28T05:56:18.368Z,97601.00
2023-04-28T05:58:45.802Z,97597.80
2023-04-28T06:01:13.115Z,97596.20
2023-04-28T06:03:43.111Z,97594.80
2023-04-28T06:06:11.475Z,97580.20
2023-04-28T06:08:38.971Z,97577.60
2023-04-28T06:11:06.127Z,97585.80
2023-04-28T06:13:33.283Z,97588.00
2023-04-28T06:16:00.002Z,97582.80
2023-04-28T06:18:27.110Z,97579.80
2023-04-28T06:20:53.746Z,97573.20
2023-04-28T06:23:20.421Z,97575.40
2023-04-28T06:25:48.716Z,97569.60
2023-04-28T06:28:15.434Z,97571.80
2023-04-28T06:30:42.261Z,97568.80
2023-04-28T06:33:09.375Z,97561.40
2023-04-28T06:35:38.433Z,97553.80
2023-04-28T06:38:07.397Z,97546.40
2023-04-28T06:40:34.063Z,97548.40
2023-04-28T06:43:04.018Z,97547.00
2023-04-28T06:45:35.630Z,97547.80
2023-04-28T06:48:02.368Z,97552.60
2023-04-28T06:50:29.372Z,97551.40
2023-04-28T06:52:56.137Z,97544.20
2023-04-28T06:55:23.747Z,97539.20
2023-04-28T06:57:50.930Z,97531.20
2023-04-28T07:00:17.941Z,97527.80
2023-04-28T07:02:44.692Z,97520.20
2023-04-28T07:05:11.740Z,97523.20
2023-04-28T07:07:39.285Z,97529.00
2023-04-28T07:10:07.469Z,97534.00
2023-04-28T07:12:34.160Z,97530.00
2023-04-28T07:15:00.884Z,97527.80
2023-04-28T07:17:27.575Z,97529.60
2023-04-28T07:19:54.386Z,97528.40
2023-04-28T07:22:21.458Z,97527.40
2023-04-28T07:24:48.200Z,97519.40
2023-04-28T07:27:14.959Z,97517.00
2023-04-28T07:29:41.606Z,97521.20
2023-04-28T07:32:10.344Z,97528.40
2023-04-28T07:34:37.406Z,97520.40
2023-04-28T07:37:04.741Z,97520.60
2023-04-28T07:39:34.050Z,97520.00
2023-04-28T07:42:03.955Z,97520.20
2023-04-28T07:44:31.808Z,97526.00
2023-04-28T07:47:00.888Z,97523.60
2023-04-28T07:49:29.702Z,97520.80
2023-04-28T07:51:56.611Z,97518.60
2023-04-28T07:54:23.885Z,97513.80
2023-04-28T07:56:50.822Z,97519.80
2023-04-28T07:59:17.572Z,97518.20
2023-04-28T08:01:44.303Z,97523.00
2023-04-28T08:04:11.835Z,97526.80
2023-04-28T08:06:40.101Z,97519.20
2023-04-28T08:09:07.150Z,97516.00
2023-04-28T08:11:34.815Z,97506.80
2023-04-28T08:14:03.312Z,97503.20
2023-04-28T08:16:31.743Z,97509.60
2023-04-28T08:18:59.737Z,97510.20
2023-04-28T08:21:27.111Z,97510.80
2023-04-28T08:23:53.987Z,97518.00
2023-04-28T08:26:21.213Z,97515.60
2023-04-28T08:28:47.889Z,97517.40
2023-04-28T08:31:14.691Z,97509.80
2023-04-28T08:33:44.569Z,97514.80
2023-04-28T08:36:15.052Z,97513.80
2023-04-28T08:38:43.109Z,97507.20
2023-04-28T08:41:09.987Z,97500.60
2023-04-28T08:43:37.352Z,97495.00
2023-04-28T08:46:08.078Z,97493.20
2023-04-28T08:48:45.598Z,97485.80
2023-04-28T08:51:26.106Z,97479.60
2023-04-28T08:56:33.069Z,97470.40
2023-04-28T08:59:05.035Z,97470.60
2023-04-28T09:01:32.635Z,97469.00
2023-04-28T09:04:04.117Z,97466.60
2023-04-28T09:06:39.149Z,97463.80
2023-04-28T09:09:39.409Z,97462.80
2023-04-28T09:12:07.719Z,97459.60
2023-04-28T09:14:37.351Z,97462.00
2023-04-28T09:17:16.398Z,97464.60
2023-04-28T09:19:44.268Z,97458.80
2023-04-28T09:22:25.703Z,97462.20
2023-04-28T09:24:55.758Z,97455.20
2023-04-28T09:27:28.970Z,97452.80
2023-04-28T09:29:55.989Z,97445.60
2023-04-28T09:32:24.128Z,97443.40
2023-04-28T09:34:56.505Z,97434.00
2023-04-28T09:37:26.050Z,97430.80
2023-04-28T09:39:55.185Z,97437.40
2023-04-28T09:42:39.346Z,97439.00
2023-04-28T09:45:08.708Z,97437.40
2023-04-28T09:47:41.992Z,97437.60
2023-04-28T09:50:14.580Z,97432.40
2023-04-28T09:52:53.620Z,97428.80
2023-04-28T09:55:20.569Z,97425.80
2023-04-28T09:57:50.371Z,97422.20
2023-04-28T10:00:18.805Z,97422.60
2023-04-28T10:02:46.188Z,97416.80
2023-04-28T10:05:17.212Z,97411.20
2023-04-28T10:07:45.224Z,97408.60
2023-04-28T10:10:14.735Z,97409.40
2023-04-28T10:12:42.556Z,97408.40
2023-04-28T10:15:10.831Z,97410.00
2023-04-28T10:17:39.303Z,97408.40
2023-04-28T10:20:08.623Z,97405.00
2023-04-28T10:23:26.293Z,97401.60
2023-04-28T10:25:58.171Z,97400.80
2023-04-28T10:28:28.751Z,97397.60
2023-04-28T10:31:23.206Z,97400.00
2023-04-28T10:33:50.486Z,97396.00
2023-04-28T10:36:55.859Z,97395.40
2023-04-28T10:39:22.653Z,97396.60
2023-04-28T10:41:49.496Z,97392.20
2023-04-28T10:44:42.786Z,97390.60
2023-04-28T10:47:10.886Z,97388.60
2023-04-28T10:49:58.822Z,97388.20
2023-04-28T10:52:35.350Z,97381.60
2023-04-28T10:55:39.825Z,97379.40
2023-04-28T10:58:15.723Z,97376.20
2023-04-28T11:00:45.355Z,97373.80
2023-04-28T11:03:51.068Z,97375.00
2023-04-28T11:06:40.285Z,97379.60
2023-04-28T11:09:14.088Z,97374.40
2023-04-28T11:12:05.566Z,97378.40
2023-04-28T11:14:37.954Z,97380.80
2023-04-28T11:17:13.955Z,97381.20
2023-04-28T11:19:45.314Z,97379.00
2023-04-28T11:22:23.474Z,97379.80
2023-04-28T11:25:02.598Z,97383.40
2023-04-28T11:27:32.405Z,97382.80
2023-04-28T11:30:00.235Z,97383.20
2023-04-28T11:32:28.924Z,97383.20
2023-04-28T11:34:55.809Z,97385.00
2023-04-28T11:37:23.034Z,97391.60
2023-04-28T11:39:50.218Z,97400.00
2023-04-28T11:42:17.346Z,97400.60
2023-04-28T11:44:54.840Z,97405.20
2023-04-28T11:47:33.600Z,97405.80
2023-04-28T11:50:02.070Z,97410.00
2023-04-28T11:52:29.280Z,97408.80
2023-04-28T11:55:02.207Z,97416.80
2023-04-28T11:57:29.271Z,97416.00
2023-04-28T12:00:21.814Z,97420.40
2023-04-28T12:02:48.753Z,97429.00
2023-04-28T12:05:15.704Z,97429.80
2023-04-28T12:07:45.231Z,97437.20
2023-04-28T12:10:17.219Z,97438.80
2023-04-28T12:12:51.919Z,97442.60
2023-04-28T12:15:22.169Z,97443.80
2023-04-28T12:17:51.299Z,97443.80
2023-04-28T12:20:39.102Z,97444.20
2023-04-28T12:23:09.373Z,97446.20
2023-04-28T12:25:46.360Z,97452.00
2023-04-28T12:28:13.000Z,97450.40
2023-04-28T12:30:41.938Z,97452.80
2023-04-28T12:33:27.339Z,97450.20
2023-04-28T12:35:56.260Z,97460.40
2023-04-28T12:38:24.595Z,97461.80
2023-04-28T12:40:51.889Z,97463.20
2023-04-28T12:43:18.902Z,97461.20
2023-04-28T12:45:45.557Z,97464.00
2023-04-28T12:48:12.225Z,97465.60
2023-04-28T12:50:38.945Z,97467.00
2023-04-28T12:53:05.757Z,97473.00
2023-04-28T12:55:32.562Z,97473.60
2023-04-28T12:57:59.542Z,97470.80
2023-04-28T13:00:26.487Z,97476.60
2023-04-28T13:02:53.512Z,97483.00
2023-04-28T13:05:20.257Z,97477.00
2023-04-28T13:07:47.745Z,97472.00
2023-04-28T13:10:14.393Z,97476.00
2023-04-28T13:12:41.723Z,97475.00
2023-04-28T13:15:09.450Z,97475.00
2023-04-28T13:17:36.058Z,97474.40
2023-04-28T13:20:05.221Z,97475.60
2023-04-28T13:22:32.321Z,97479.80
2023-04-28T13:24:59.104Z,97472.00
2023-04-28T13:27:25.945Z,97472.00
2023-04-28T13:29:52.784Z,97474.00
2023-04-28T13:32:19.437Z,97477.00
2023-04-28T13:34:46.704Z,97479.40
2023-04-28T13:37:13.749Z,97478.40
2023-04-28T13:39:40.559Z,97477.00
2023-04-28T13:42:07.181Z,97472.60
2023-04-28T13:44:33.847Z,97477.80
2023-04-28T13:47:00.936Z,97475.60
2023-04-28T13:49:28.097Z,97482.80
2023-04-28T13:51:54.746Z,97477.20
2023-04-28T13:54:21.778Z,97463.00
2023-04-28T13:56:48.672Z,97447.20
2023-04-28T13:59:15.273Z,97435.40
2023-04-28T14:01:42.022Z,97421.00
2023-04-28T14:04:08.959Z,97412.20
2023-04-28T14:06:36.034Z,97398.20
2023-04-28T14:09:03.550Z,97384.20
2023-04-28T14:11:30.539Z,97364.20
2023-04-28T14:13:57.493Z,97346.20
2023-04-28T14:16:24.141Z,97320.00
2023-04-28T14:18:51.897Z,97292.00
2023-04-28T14:21:18.549Z,97289.40
2023-04-28T14:23:45.132Z,97320.40
2023-04-28T14:26:12.053Z,97341.20
2023-04-28T14:28:38.673Z,97356.00
2023-04-28T14:31:07.396Z,97363.00
2023-04-28T14:33:34.436Z,97367.80
2023-04-28T14:36:02.406Z,97370.20
2023-04-28T14:38:30.685Z,97374.00
2023-04-28T14:40:57.808Z,97377.40
2023-04-28T14:43:24.907Z,97386.20
2023-04-28T14:45:52.422Z,97391.00
2023-04-28T14:48:20.188Z,97383.60
2023-04-28T14:50:47.709Z,97377.00
2023-04-28T14:53:14.580Z,97371.00
2023-04-28T14:55:41.175Z,97370.80
2023-04-28T14:58:07.784Z,97380.00
2023-04-28T15:00:35.482Z,97377.00
2023-04-28T15:03:04.042Z,97380.60
2023-04-28T15:05:30.807Z,97374.00
2023-04-28T15:07:57.470Z,97366.20
2023-04-28T15:10:24.477Z,97365.40
2023-04-28T15:12:51.210Z,97373.60
2023-04-28T15:15:17.839Z,97369.20
2023-04-28T15:17:45.480Z,97353.60
2023-04-28T15:20:12.292Z,97355.80
2023-04-28T15:22:38.922Z,97346.00
2023-04-28T15:25:07.365Z,97347.00
2023-04-28T15:27:33.945Z,97348.00
2023-04-28T15:30:01.264Z,97342.80
2023-04-28T15:32:30.410Z,97343.40
2023-04-28T15:34:57.380Z,97339.80
2023-04-28T15:37:46.881Z,97339.80
2023-04-28T15:40:16.888Z,97338.80
2023-04-28T15:42:48.947Z,97338.80
2023-04-28T15:45:18.453Z,97338.80
2023-04-28T15:47:47.585Z,97344.40
2023-04-28T15:50:14.285Z,97338.40
2023-04-28T15:52:46.767Z,97330.40
2023-04-28T15:55:18.486Z,97323.60
2023-04-28T15:57:47.672Z,97319.80
2023-04-28T16:00:16.000Z,97321.20
2023-04-28T16:02:43.646Z,97317.80
2023-04-28T16:05:11.695Z,97317.00
2023-04-28T16:07:40.902Z,97320.40
2023-04-28T16:10:13.860Z,97314.80
2023-04-28T16:12:42.040Z,97312.80
2023-04-28T16:15:12.597Z,97311.60
2023-04-28T16:17:40.296Z,97314.00
2023-04-28T16:20:09.890Z,97314.80
2023-04-28T16:22:37.738Z,97308.60
2023-04-28T16:25:06.387Z,97309.80
2023-04-28T16:27:33.499Z,97307.20
2023-04-28T16:30:00.684Z,97306.00
2023-04-28T16:32:27.352Z,97305.00
2023-04-28T16:34:57.530Z,97306.40
2023-04-28T16:37:24.244Z,97314.40
2023-04-28T16:39:51.549Z,97317.80
2023-04-28T16:42:20.932Z,97315.20
2023-04-28T16:44:47.611Z,97309.60
2023-04-28T16:47:15.209Z,97310.20
2023-04-28T16:49:41.790Z,97309.80
2023-04-28T16:52:09.597Z,97309.40
2023-04-28T16:54:36.341Z,97314.60
2023-04-28T16:57:04.043Z,97309.80
2023-04-28T16:59:31.511Z,97310.40
2023-04-28T17:01:59.484Z,97305.60
2023-04-28T17:04:27.168Z,97305.00
2023-04-28T17:06:54.374Z,97302.80
2023-04-28T17:09:22.531Z,97300.80
2023-04-28T17:11:50.268Z,97301.40
2023-04-28T17:14:17.021Z,97304.60
2023-04-28T17:16:44.140Z,97299.60
2023-04-28T17:19:12.062Z,97296.60
2023-04-28T17:21:38.947Z,97298.20
2023-04-28T17:24:05.953Z,97293.00
2023-04-28T17:26:32.794Z,97285.80
2023-04-28T17:29:00.144Z,97292.80
2023-04-28T17:31:29.019Z,97302.20
2023-04-28T17:33:59.669Z,97302.60
2023-04-28T17:36:27.158Z,97294.00
2023-04-28T17:38:56.807Z,97285.20
2023-04-28T17:41:23.614Z,97282.80
2023-04-28T17:43:54.356Z,97278.80
2023-04-28T17:46:21.788Z,97271.60
2023-04-28T17:48:49.201Z,97269.40
2023-04-28T17:51:15.851Z,97271.60
2023-04-28T17:53:42.686Z,97269.20
2023-04-28T17:56:09.362Z,97260.40
2023-04-28T17:58:36.564Z,97261.40
2023-04-28T18:01:07.722Z,97257.80
2023-04-28T18:03:37.918Z,97263.60
2023-04-28T18:06:06.193Z,97274.00
2023-04-28T18:08:33.250Z,97282.20
2023-04-28T18:11:01.430Z,97282.00
2023-04-28T18:13:28.049Z,97284.20
2023-04-28T18:15:54.735Z,97284.00
2023-04-28T18:18:21.436Z,97286.00
2023-04-28T18:20:48.048Z,97299.60
2023-04-28T18:23:14.643Z,97295.80
2023-04-28T18:25:42.167Z,97297.60
2023-04-28T18:28:10.443Z,97297.40
2023-04-28T18:30:39.669Z,97299.40
2023-04-28T18:33:08.323Z,97295.20
2023-04-28T18:35:36.974Z,97298.20
2023-04-28T18:38:05.079Z,97296.40
2023-04-28T18:40:39.585Z,97292.40
2023-04-28T18:43:08.787Z,97289.40
2023-04-28T18:45:39.553Z,97284.80
2023-04-28T18:48:07.679Z,97281.40
2023-04-28T18:50:34.973Z,97285.80
2023-04-28T18:53:04.330Z,97296.40
2023-04-28T18:55:34.290Z,97303.60
2023-04-28T18:58:02.884Z,97300.20
2023-04-28T19:00:30.856Z,97288.60
2023-04-28T19:02:57.632Z,97291.80
2023-04-28T19:05:24.640Z,97291.00
2023-04-28T19:07:51.452Z,97291.40
2023-04-28T19:10:18.419Z,97288.20
2023-04-28T19:12:44.973Z,97293.20
2023-04-28T19:15:11.600Z,97295.20
2023-04-28T19:17:38.220Z,97302.20
2023-04-28T19:20:06.204Z,97301.20
2023-04-28T19:22:38.547Z,97303.60
2023-04-28T19:25:07.048Z,97301.40
2023-04-28T19:27:40.094Z,97298.40
2023-04-28T19:30:10.242Z,97299.20
2023-04-28T19:32:38.289Z,97304.80
2023-04-28T19:35:05.679Z,97305.00
2023-04-28T19:37:38.066Z,97311.80
2023-04-28T19:40:07.482Z,97308.60
2023-04-28T19:42:37.566Z,97309.40
2023-04-28T19:45:05.083Z,97299.80
2023-04-28T19:47:34.029Z,97296.40
2023-04-28T19:50:01.485Z,97291.40
2023-04-28T19:52:28.286Z,97294.80
2023-04-28T19:54:54.995Z,97307.20
2023-04-28T19:57:22.435Z,97303.40
2023-04-28T19:59:49.855Z,97304.60
2023-04-28T20:02:17.187Z,97302.40
2023-04-28T20:04:44.331Z,97298.80
2023-04-28T20:07:11.503Z,97299.60
2023-04-28T20:09:39.096Z,97303.20
2023-04-28T20:12:08.835Z,97300.80
2023-04-28T20:14:37.127Z,97296.20
2023-04-28T20:17:07.312Z,97300.80
2023-04-28T20:19:34.874Z,97301.20
2023-04-28T20:22:08.219Z,97304.00
2023-04-28T20:24:36.707Z,97307.80
2023-04-28T20:27:04.111Z,97307.20
2023-04-28T20:29:34.608Z,97314.40
2023-04-28T20:32:02.470Z,97309.20
2023-04-28T20:34:29.168Z,97306.20
2023-04-28T20:36:57.288Z,97306.60
2023-04-28T20:39:24.038Z,97312.80
2023-04-28T20:41:50.708Z,97323.20
2023-04-28T20:44:18.331Z,97323.00
2023-04-28T20:46:45.952Z,97331.40
2023-04-28T20:49:13.340Z,97331.00
2023-04-28T20:51:46.715Z,97331.20
2023-04-28T20:54:14.017Z,97325.20
2023-04-28T20:56:42.098Z,97320.20
2023-04-28T20:59:08.969Z,97327.80
2023-04-28T21:01:35.660Z,97334.40
2023-04-28T21:04:02.443Z,97339.00
2023-04-28T21:06:29.251Z,97345.00
2023-04-28T21:08:55.858Z,97345.60
2023-04-28T21:11:22.518Z,97353.80
2023-04-28T21:13:50.387Z,97347.40
2023-04-28T21:16:21.407Z,97343.60
2023-04-28T21:18:49.238Z,97340.00
2023-04-28T21:21:16.652Z,97340.80
2023-04-28T21:23:43.472Z,97340.20
2023-04-28T21:26:10.554Z,97337.20
2023-04-28T21:28:37.771Z,97344.20
2023-04-28T21:31:04.939Z,97346.40
2023-04-28T21:33:32.544Z,97354.40
2023-04-28T21:36:09.093Z,97352.40
2023-04-28T21:38:37.890Z,97343.80
2023-04-28T21:41:07.449Z,97341.00
2023-04-28T21:43:34.492Z,97343.80
2023-04-28T21:46:01.473Z,97338.60
2023-04-28T21:48:28.586Z,97321.60
2023-04-28T21:50:55.178Z,97315.60
2023-04-28T21:53:21.989Z,97314.00
2023-04-28T21:55:48.622Z,97316.60
2023-04-28T21:58:15.227Z,97319.60
2023-04-28T22:00:48.764Z,97314.80
2023-04-28T22:03:16.007Z,97307.20
2023-04-28T22:05:44.840Z,97299.20
2023-04-28T22:08:13.386Z,97294.40
2023-04-28T22:10:40.743Z,97289.80
2023-04-28T22:13:07.412Z,97297.00
2023-04-28T22:15:34.182Z,97296.20
2023-04-28T22:18:00.930Z,97300.20
2023-04-28T22:20:27.762Z,97307.00
2023-04-28T22:22:54.679Z,97299.80
2023-04-28T22:25:21.704Z,97302.20
2023-04-28T22:27:48.338Z,97301.80
2023-04-28T22:30:15.660Z,97291.80
2023-04-28T22:32:47.286Z,97292.40
2023-04-28T22:35:17.069Z,97293.80
2023-04-28T22:37:43.804Z,97292.80
2023-04-28T22:40:11.301Z,97302.40
2023-04-28T22:42:40.753Z,97306.80
2023-04-28T22:45:10.075Z,97310.40
2023-04-28T22:47:40.485Z,97316.00
2023-04-28T22:50:09.854Z,97316.60
2023-04-28T22:52:37.381Z,97317.00
2023-04-28T22:55:04.773Z,97309.40
2023-04-28T22:57:31.454Z,97298.80
2023-04-28T22:59:58.305Z,97299.60
2023-04-28T23:02:25.449Z,97292.40
2023-04-28T23:04:52.465Z,97280.40
2023-04-28T23:07:19.459Z,97286.60
2023-04-28T23:09:46.205Z,97291.20
2023-04-28T23:12:12.803Z,97290.60
2023-04-28T23:14:39.980Z,97297.60
2023-04-28T23:17:06.620Z,97301.80
2023-04-28T23:19:35.624Z,97305.00
2023-04-28T23:22:02.235Z,97301.80
2023-04-28T23:24:28.980Z,97303.20
2023-04-28T23:26:55.730Z,97298.60
2023-04-28T23:29:22.318Z,97298.40
2023-04-28T23:31:52.589Z,97294.00
2023-04-28T23:34:19.403Z,97290.40
2023-04-28T23:36:46.214Z,97292.60
2023-04-28T23:39:13.719Z,97277.20
2023-04-28T23:41:41.009Z,97273.60
2023-04-28T23:44:08.808Z,97274.20
2023-04-28T23:46:35.476Z,97276.60
2023-04-28T23:49:02.198Z,97277.20
2023-04-28T23:51:28.807Z,97280.20
2023-04-28T23:53:55.621Z,97282.00
2023-04-28T23:56:22.201Z,97278.60
2023-04-28T23:58:48.805Z,97281.00
